Terminal Aerodrome Forecast
Issued by NWS Northern Indiana

Home | Current Version | Previous Version | Text Only | Print | Product List | Glossary On
Versions: 1 2 3 4 5 6 7 8 9 10 11 12 13 14 15 16
000
FTUS43 KIWX 281723
TAFFWA
TAF
KFWA 281723Z 2818/2918 17009KT P6SM BKN100
     FM282000 13009KT P6SM VCSH OVC100
     FM290000 10007KT P6SM -SHRA OVC060
     FM290400 07009KT 5SM -SHRA OVC015=

USA.gov is the U.S. government's official web portal to all federal, state and local government web resources and services.